Time;durP1;ratioP1;P1;durP2;ratioP2;P2;SDS_P1;SDS_P2;PMS_P1;PMS_P2;Temp;Humidity;BMP_temperature;BMP_pressure;BME280_temperature;BME280_humidity;BME280_pressure;Samples;Min_cycle;Max_cycle;Signal;HPM_P1;HPM_P2
2021/07/26 00:01:39;;;;;;;7.78;7.00;;;;;;;;;;5099404;28;20038;-78
2021/07/26 00:04:05;;;;;;;10.25;6.75;;;;;;;;;;5098929;28;20032;-78
2021/07/26 00:06:31;;;;;;;6.10;5.60;;;;;;;;;;5099423;28;20377;-78
2021/07/26 00:08:57;;;;;;;6.70;6.03;;;;;;;;;;5099054;28;20414;-78
2021/07/26 00:11:23;;;;;;;6.07;5.57;;;;;;;;;;5098727;28;20020;-77
2021/07/26 00:13:49;;;;;;;7.15;6.53;;;;;;;;;;5098469;28;20046;-77
2021/07/26 00:16:15;;;;;;;9.52;5.78;;;;;;;;;;5097713;28;20032;-75
2021/07/26 00:18:42;;;;;;;6.65;6.05;;;;;;;;;;5098914;28;20107;-78
2021/07/26 00:21:08;;;;;;;6.45;5.72;;;;;;;;;;5098713;28;20032;-77
2021/07/26 00:23:34;;;;;;;5.90;5.30;;;;;;;;;;5098944;28;20070;-77
2021/07/26 00:26:00;;;;;;;6.28;5.68;;;;;;;;;;5098332;28;20028;-78
2021/07/26 00:28:26;;;;;;;6.93;5.10;;;;;;;;;;5098257;28;20111;-77
2021/07/26 00:30:52;;;;;;;7.63;5.45;;;;;;;;;;5099053;28;20509;-77
2021/07/26 00:33:47;;;;;;;11.25;4.97;;;;;;;;;;5098610;28;20476;-77
2021/07/26 00:36:13;;;;;;;7.97;5.43;;;;;;;;;;5097682;28;20036;-77
2021/07/26 00:38:39;;;;;;;4.82;4.28;;;;;;;;;;5098423;28;20021;-80
2021/07/26 00:41:08;;;;;;;4.60;4.20;;;;;;;;;;5098504;28;20481;-78
2021/07/26 00:43:34;;;;;;;4.95;4.47;;;;;;;;;;5098084;28;20028;-77
2021/07/26 00:46:00;;;;;;;8.02;4.20;;;;;;;;;;5097919;28;20521;-78
2021/07/26 00:48:26;;;;;;;5.28;4.30;;;;;;;;;;5098380;28;20457;-77
2021/07/26 00:50:53;;;;;;;4.90;4.40;;;;;;;;;;5098215;28;20111;-76
2021/07/26 00:53:19;;;;;;;8.68;4.90;;;;;;;;;;5097093;28;20044;-76
2021/07/26 00:55:45;;;;;;;4.63;4.20;;;;;;;;;;5096079;28;20071;-76
2021/07/26 00:58:11;;;;;;;4.85;4.45;;;;;;;;;;5096503;28;20509;-75
2021/07/26 01:00:37;;;;;;;5.50;4.78;;;;;;;;;;5096479;28;20032;-74
2021/07/26 01:03:03;;;;;;;5.32;4.43;;;;;;;;;;5096562;28;20028;-73
2021/07/26 01:05:29;;;;;;;4.47;4.07;;;;;;;;;;5096415;28;20024;-74
2021/07/26 01:07:55;;;;;;;5.13;4.60;;;;;;;;;;5096469;28;20107;-75
2021/07/26 01:10:21;;;;;;;5.72;4.60;;;;;;;;;;5096815;28;20756;-74
2021/07/26 01:12:47;;;;;;;3.85;3.55;;;;;;;;;;5096898;28;20024;-74
2021/07/26 01:15:13;;;;;;;4.75;4.28;;;;;;;;;;5096600;28;20389;-73
2021/07/26 01:18:01;;;;;;;4.82;4.32;;;;;;;;;;5096780;28;20063;-73
2021/07/26 01:20:27;;;;;;;7.30;4.57;;;;;;;;;;5095506;28;20028;-75
2021/07/26 01:22:53;;;;;;;4.82;4.10;;;;;;;;;;5096550;28;20028;-74
2021/07/26 01:25:19;;;;;;;10.60;4.30;;;;;;;;;;5095972;28;20107;-74
2021/07/26 01:27:45;;;;;;;4.60;4.20;;;;;;;;;;5096042;28;20032;-74
2021/07/26 01:30:12;;;;;;;4.65;4.03;;;;;;;;;;5096194;28;20066;-73
2021/07/26 01:32:38;;;;;;;5.80;3.67;;;;;;;;;;5095915;28;20462;-74
2021/07/26 01:35:04;;;;;;;3.85;3.55;;;;;;;;;;5095471;28;20165;-74
2021/07/26 01:37:30;;;;;;;4.57;4.05;;;;;;;;;;5095337;28;20047;-74
2021/07/26 01:39:56;;;;;;;5.22;3.53;;;;;;;;;;5095620;28;20043;-75
2021/07/26 01:42:22;;;;;;;4.93;3.72;;;;;;;;;;5095575;28;20051;-75
2021/07/26 01:44:48;;;;;;;4.40;4.10;;;;;;;;;;5095086;28;20024;-75
2021/07/26 01:47:14;;;;;;;4.15;3.83;;;;;;;;;;5095546;28;20115;-75
2021/07/26 01:49:44;;;;;;;3.58;3.28;;;;;;;;;;5095635;28;20504;-75
2021/07/26 01:52:10;;;;;;;3.70;3.40;;;;;;;;;;5094795;28;20031;-76
2021/07/26 01:54:36;;;;;;;4.15;3.80;;;;;;;;;;5095732;28;20028;-75
2021/07/26 01:57:02;;;;;;;9.23;3.33;;;;;;;;;;5095411;28;20036;-75
2021/07/26 01:59:29;;;;;;;4.57;3.35;;;;;;;;;;5096670;28;20043;-77
2021/07/26 02:01:55;;;;;;;9.75;4.05;;;;;;;;;;5095694;28;20051;-78
2021/07/26 02:04:21;;;;;;;3.50;3.20;;;;;;;;;;5095853;28;20412;-78
2021/07/26 02:06:47;;;;;;;3.78;3.40;;;;;;;;;;5095535;28;20069;-77
2021/07/26 02:09:13;;;;;;;3.42;3.13;;;;;;;;;;5095814;28;20476;-78
2021/07/26 02:11:39;;;;;;;4.40;3.10;;;;;;;;;;5095663;28;20032;-78
2021/07/26 02:14:09;;;;;;;3.58;3.28;;;;;;;;;;5094903;28;20411;-78
2021/07/26 02:16:36;;;;;;;4.00;3.60;;;;;;;;;;5095525;28;20024;-77
2021/07/26 02:19:02;;;;;;;3.88;3.50;;;;;;;;;;5095335;28;20043;-78
2021/07/26 02:21:28;;;;;;;4.63;3.80;;;;;;;;;;5095522;28;20157;-78
2021/07/26 02:23:54;;;;;;;4.55;4.15;;;;;;;;;;5095216;28;20027;-78
2021/07/26 02:26:20;;;;;;;3.38;3.05;;;;;;;;;;5095224;28;20028;-77
2021/07/26 02:28:46;;;;;;;3.58;3.28;;;;;;;;;;5095233;28;20035;-78
2021/07/26 02:31:12;;;;;;;3.55;3.13;;;;;;;;;;5095245;28;20020;-78
2021/07/26 02:33:38;;;;;;;4.07;3.65;;;;;;;;;;5094963;28;20024;-77
2021/07/26 02:36:04;;;;;;;3.80;3.47;;;;;;;;;;5094523;28;20528;-77
2021/07/26 02:38:30;;;;;;;6.85;3.50;;;;;;;;;;5095149;28;20031;-78
2021/07/26 02:40:56;;;;;;;4.05;3.63;;;;;;;;;;5095459;28;20027;-78
2021/07/26 02:43:22;;;;;;;4.38;4.05;;;;;;;;;;5094912;28;20515;-77
2021/07/26 02:45:48;;;;;;;6.78;4.07;;;;;;;;;;5094469;28;20469;-78
2021/07/26 02:48:15;;;;;;;7.88;3.50;;;;;;;;;;5094570;28;20028;-78
2021/07/26 02:50:41;;;;;;;3.53;3.10;;;;;;;;;;5094615;28;20485;-77
2021/07/26 02:53:07;;;;;;;3.72;3.42;;;;;;;;;;5094721;28;20543;-78
2021/07/26 02:55:33;;;;;;;4.20;3.35;;;;;;;;;;5094642;28;20537;-77
2021/07/26 02:57:59;;;;;;;9.27;4.03;;;;;;;;;;5094488;28;20111;-78
2021/07/26 03:00:25;;;;;;;9.18;4.47;;;;;;;;;;5094771;28;20024;-77
2021/07/26 03:02:51;;;;;;;5.70;3.55;;;;;;;;;;5094723;28;20130;-78
2021/07/26 03:05:17;;;;;;;6.30;4.03;;;;;;;;;;5094292;28;20024;-78
2021/07/26 03:07:43;;;;;;;4.85;4.05;;;;;;;;;;5094670;28;20073;-78
2021/07/26 03:10:10;;;;;;;6.30;5.20;;;;;;;;;;5094711;28;20032;-77
2021/07/26 03:12:36;;;;;;;4.28;3.65;;;;;;;;;;5094667;28;20054;-77
2021/07/26 03:15:02;;;;;;;4.20;3.80;;;;;;;;;;5094234;28;20024;-77
2021/07/26 03:17:28;;;;;;;5.15;4.40;;;;;;;;;;5094246;28;20466;-77
2021/07/26 03:19:55;;;;;;;5.05;3.42;;;;;;;;;;5094248;28;20064;-78
2021/07/26 03:22:42;;;;;;;4.72;3.83;;;;;;;;;;5094676;28;20111;-78
2021/07/26 03:25:08;;;;;;;10.07;5.03;;;;;;;;;;5093300;28;20028;-77
2021/07/26 03:27:34;;;;;;;6.32;4.55;;;;;;;;;;5093096;28;20024;-77
2021/07/26 03:30:00;;;;;;;4.80;4.40;;;;;;;;;;5094327;28;20028;-78
2021/07/26 03:32:26;;;;;;;6.13;5.63;;;;;;;;;;5093947;28;20549;-77
2021/07/26 03:34:53;;;;;;;5.20;4.70;;;;;;;;;;5094739;28;20454;-77
2021/07/26 03:37:19;;;;;;;7.05;4.82;;;;;;;;;;5094029;28;20040;-77
2021/07/26 03:39:45;;;;;;;6.13;4.38;;;;;;;;;;5093919;28;20020;-78
2021/07/26 03:42:11;;;;;;;4.43;4.10;;;;;;;;;;5094277;28;20470;-77
2021/07/26 03:44:37;;;;;;;8.45;5.78;;;;;;;;;;5094079;28;20508;-77
2021/07/26 03:47:03;;;;;;;4.70;4.30;;;;;;;;;;5094162;28;20128;-78
2021/07/26 03:49:29;;;;;;;4.72;4.20;;;;;;;;;;5094225;28;20031;-78
2021/07/26 03:51:55;;;;;;;6.07;3.85;;;;;;;;;;5093870;28;20024;-78
2021/07/26 03:54:21;;;;;;;5.10;4.53;;;;;;;;;;5093848;28;20098;-77
2021/07/26 03:56:47;;;;;;;4.90;4.47;;;;;;;;;;5094547;28;20028;-77
2021/07/26 03:59:13;;;;;;;4.90;4.50;;;;;;;;;;5093946;28;20085;-77
2021/07/26 04:01:39;;;;;;;5.20;4.72;;;;;;;;;;5093996;28;20474;-75
2021/07/26 04:04:05;;;;;;;9.23;5.68;;;;;;;;;;5093908;28;20029;-78
2021/07/26 04:06:32;;;;;;;4.75;4.32;;;;;;;;;;5094504;28;20055;-78
2021/07/26 04:08:59;;;;;;;5.40;4.93;;;;;;;;;;5094003;28;20070;-78
2021/07/26 04:11:29;;;;;;;4.90;4.50;;;;;;;;;;5094083;28;20051;-76
2021/07/26 04:13:59;;;;;;;7.68;5.07;;;;;;;;;;5093754;28;20024;-76
2021/07/26 04:16:25;;;;;;;10.52;5.32;;;;;;;;;;5093592;28;20032;-77
2021/07/26 04:18:52;;;;;;;6.15;5.53;;;;;;;;;;5093738;28;20103;-76
2021/07/26 04:21:18;;;;;;;5.90;5.03;;;;;;;;;;5093984;28;20036;-76
2021/07/26 04:23:44;;;;;;;7.72;4.93;;;;;;;;;;5093571;28;20016;-81
2021/07/26 04:26:10;;;;;;;4.70;4.30;;;;;;;;;;5093772;28;20036;-76
2021/07/26 04:28:36;;;;;;;6.10;5.32;;;;;;;;;;5093617;28;20032;-76
2021/07/26 04:31:03;;;;;;;8.15;4.13;;;;;;;;;;5093032;28;20038;-75
2021/07/26 04:33:29;;;;;;;7.85;7.10;;;;;;;;;;5093696;28;20077;-75
2021/07/26 04:35:55;;;;;;;6.55;5.35;;;;;;;;;;5093015;28;20424;-76
2021/07/26 04:38:21;;;;;;;11.23;5.30;;;;;;;;;;5095113;28;20024;-75
2021/07/26 04:40:47;;;;;;;7.78;5.22;;;;;;;;;;5097224;28;20036;-76
2021/07/26 04:43:13;;;;;;;7.07;4.72;;;;;;;;;;5097269;28;20404;-75
2021/07/26 04:45:39;;;;;;;4.70;4.30;;;;;;;;;;5096963;28;20035;-76
2021/07/26 04:48:06;;;;;;;5.20;4.70;;;;;;;;;;5096929;28;20027;-76
2021/07/26 04:50:32;;;;;;;6.43;5.43;;;;;;;;;;5097416;28;20028;-76
2021/07/26 04:52:58;;;;;;;5.55;5.05;;;;;;;;;;5096994;28;20069;-78
2021/07/26 04:55:24;;;;;;;5.20;4.80;;;;;;;;;;5097204;28;20504;-78
2021/07/26 04:57:52;;;;;;;5.70;5.10;;;;;;;;;;5096713;28;20377;-78
2021/07/26 05:00:18;;;;;;;6.13;5.63;;;;;;;;;;5097024;28;20023;-78
2021/07/26 05:02:44;;;;;;;6.30;5.70;;;;;;;;;;5097155;28;20024;-77
2021/07/26 05:05:10;;;;;;;6.18;4.57;;;;;;;;;;5097160;28;20028;-78
2021/07/26 05:07:37;;;;;;;5.18;4.47;;;;;;;;;;5097067;28;20484;-78
2021/07/26 05:10:03;;;;;;;9.20;5.55;;;;;;;;;;5096578;28;20465;-78
2021/07/26 05:12:29;;;;;;;5.28;4.70;;;;;;;;;;5096772;28;20055;-78
2021/07/26 05:14:55;;;;;;;6.47;5.50;;;;;;;;;;5096476;28;20024;-78
2021/07/26 05:17:26;;;;;;;11.80;5.00;;;;;;;;;;5096948;28;20497;-78
2021/07/26 05:19:52;;;;;;;5.45;4.95;;;;;;;;;;5097282;28;20024;-76
2021/07/26 05:22:18;;;;;;;5.95;5.45;;;;;;;;;;5097156;28;20108;-73
2021/07/26 05:24:44;;;;;;;5.28;4.78;;;;;;;;;;5096984;28;20020;-76
2021/07/26 05:27:11;;;;;;;5.80;5.13;;;;;;;;;;5096334;28;20106;-74
2021/07/26 05:29:37;;;;;;;7.15;5.50;;;;;;;;;;5096071;28;20028;-74
2021/07/26 05:32:03;;;;;;;14.48;4.40;;;;;;;;;;5087663;28;20032;-76
2021/07/26 05:34:29;;;;;;;5.05;4.00;;;;;;;;;;5084999;28;20024;-75
2021/07/26 05:36:55;;;;;;;12.15;5.82;;;;;;;;;;5095963;28;20120;-76
2021/07/26 05:39:24;;;;;;;5.05;4.57;;;;;;;;;;5096107;28;20031;-73
2021/07/26 05:41:51;;;;;;;9.00;4.65;;;;;;;;;;5095604;28;20020;-73
2021/07/26 05:44:17;;;;;;;6.47;3.78;;;;;;;;;;5096115;28;20078;-71
2021/07/26 05:46:43;;;;;;;4.53;4.20;;;;;;;;;;5094592;28;20032;-71
2021/07/26 05:49:09;;;;;;;12.13;5.18;;;;;;;;;;5095320;28;20462;-73
2021/07/26 05:51:35;;;;;;;6.03;4.63;;;;;;;;;;5096566;28;20050;-73
2021/07/26 05:54:01;;;;;;;7.20;5.10;;;;;;;;;;5095571;28;20048;-72
2021/07/26 05:56:29;;;;;;;6.18;5.13;;;;;;;;;;5082457;28;20036;-75
2021/07/26 05:58:57;;;;;;;9.55;4.97;;;;;;;;;;5075847;28;20059;-74
2021/07/26 06:01:36;;;;;;;6.55;5.82;;;;;;;;;;5075925;28;20028;-71
2021/07/26 06:04:02;;;;;;;9.70;4.40;;;;;;;;;;5075048;28;20036;-73
2021/07/26 06:06:28;;;;;;;10.00;4.85;;;;;;;;;;5074583;28;20035;-73
2021/07/26 06:08:54;;;;;;;9.15;5.15;;;;;;;;;;5075520;28;20028;-71
2021/07/26 06:11:21;;;;;;;6.80;5.22;;;;;;;;;;5074778;28;20032;-71
2021/07/26 06:13:47;;;;;;;5.78;4.10;;;;;;;;;;5074588;28;20509;-77
2021/07/26 06:16:13;;;;;;;13.95;4.93;;;;;;;;;;5084447;28;20032;-72
2021/07/26 06:18:40;;;;;;;8.85;4.18;;;;;;;;;;5095775;28;20055;-72
2021/07/26 06:21:07;;;;;;;9.50;4.47;;;;;;;;;;5095608;28;20489;-75
2021/07/26 06:23:33;;;;;;;5.07;4.03;;;;;;;;;;5096083;28;20024;-73
2021/07/26 06:25:59;;;;;;;5.85;4.13;;;;;;;;;;5085293;28;20027;-74
2021/07/26 06:28:25;;;;;;;5.88;3.95;;;;;;;;;;5075863;28;20025;-75
2021/07/26 06:30:52;;;;;;;6.60;5.00;;;;;;;;;;5075960;28;20016;-74
2021/07/26 06:33:18;;;;;;;6.40;4.03;;;;;;;;;;5075840;28;20031;-74
2021/07/26 06:35:44;;;;;;;9.25;4.40;;;;;;;;;;5073918;28;20024;-75
2021/07/26 06:38:10;;;;;;;9.68;4.18;;;;;;;;;;5075582;28;20107;-76
2021/07/26 06:40:36;;;;;;;8.35;3.80;;;;;;;;;;5075531;28;20039;-76
2021/07/26 06:43:02;;;;;;;8.63;4.50;;;;;;;;;;5074875;28;20021;-75
2021/07/26 06:45:28;;;;;;;5.80;5.13;;;;;;;;;;5077587;28;20481;-73
2021/07/26 06:47:54;;;;;;;5.05;4.55;;;;;;;;;;5081123;28;20044;-75
2021/07/26 06:50:20;;;;;;;9.10;5.57;;;;;;;;;;5074160;28;20020;-76
2021/07/26 06:52:46;;;;;;;6.25;3.85;;;;;;;;;;5072307;28;20063;-79
2021/07/26 06:55:12;;;;;;;4.88;4.40;;;;;;;;;;5072355;28;20063;-77
2021/07/26 06:57:39;;;;;;;4.88;4.38;;;;;;;;;;5073662;28;20383;-75
2021/07/26 07:00:05;;;;;;;5.75;4.85;;;;;;;;;;5073919;28;20028;-76
2021/07/26 07:02:31;;;;;;;11.75;4.38;;;;;;;;;;5073236;28;20107;-75
2021/07/26 07:04:57;;;;;;;11.30;4.40;;;;;;;;;;5074004;28;20470;-75
2021/07/26 07:07:24;;;;;;;5.72;4.38;;;;;;;;;;5074598;28;20029;-75
2021/07/26 07:09:50;;;;;;;9.63;4.18;;;;;;;;;;5072689;28;20482;-76
2021/07/26 07:12:17;;;;;;;6.18;4.38;;;;;;;;;;5073784;28;20116;-76
2021/07/26 07:14:43;;;;;;;7.15;3.88;;;;;;;;;;5074115;28;20035;-75
2021/07/26 07:17:09;;;;;;;6.50;4.55;;;;;;;;;;5073462;28;20075;-75
2021/07/26 07:19:40;;;;;;;6.00;4.22;;;;;;;;;;5075202;28;20025;-74
2021/07/26 07:22:06;;;;;;;4.45;3.90;;;;;;;;;;5073647;28;20115;-75
2021/07/26 07:24:32;;;;;;;11.95;4.03;;;;;;;;;;5074420;28;20024;-77
2021/07/26 07:27:00;;;;;;;12.32;4.18;;;;;;;;;;5074759;28;20474;-75
2021/07/26 07:29:26;;;;;;;5.20;4.25;;;;;;;;;;5074305;28;20021;-74
2021/07/26 07:31:52;;;;;;;11.85;3.90;;;;;;;;;;5073614;28;20435;-74
2021/07/26 07:34:18;;;;;;;11.70;4.38;;;;;;;;;;5075821;28;20021;-77
2021/07/26 07:36:44;;;;;;;4.90;3.65;;;;;;;;;;5073784;28;20040;-73
2021/07/26 07:39:10;;;;;;;3.70;3.15;;;;;;;;;;5073113;28;20052;-72
2021/07/26 07:41:36;;;;;;;4.10;3.47;;;;;;;;;;5073283;28;20039;-75
2021/07/26 07:44:02;;;;;;;8.05;4.05;;;;;;;;;;5073547;28;20078;-74
2021/07/26 07:46:28;;;;;;;6.82;3.50;;;;;;;;;;5073851;28;20036;-73
2021/07/26 07:48:55;;;;;;;6.63;4.03;;;;;;;;;;5073336;28;20029;-71
2021/07/26 07:51:22;;;;;;;5.13;4.00;;;;;;;;;;5073448;28;20458;-72
2021/07/26 07:53:48;;;;;;;7.43;4.22;;;;;;;;;;5072559;28;20074;-74
2021/07/26 07:56:14;;;;;;;6.35;3.85;;;;;;;;;;5073265;28;20036;-75
2021/07/26 07:58:41;;;;;;;12.43;4.15;;;;;;;;;;5072504;28;20111;-72
2021/07/26 08:01:07;;;;;;;9.63;4.57;;;;;;;;;;5072762;28;20028;-71
2021/07/26 08:03:33;;;;;;;13.23;4.20;;;;;;;;;;5072832;28;20074;-74
2021/07/26 08:06:01;;;;;;;9.75;3.80;;;;;;;;;;5073264;28;20029;-75
2021/07/26 08:08:27;;;;;;;5.07;3.90;;;;;;;;;;5073509;28;20021;-75
2021/07/26 08:10:53;;;;;;;10.68;3.97;;;;;;;;;;5073891;28;20029;-73
2021/07/26 08:13:21;;;;;;;4.50;3.67;;;;;;;;;;5074971;28;20024;-73
2021/07/26 08:15:50;;;;;;;13.05;3.92;;;;;;;;;;5076601;28;20029;-78
2021/07/26 08:18:17;;;;;;;4.55;3.63;;;;;;;;;;5076879;28;20470;-76
2021/07/26 08:20:43;;;;;;;14.52;3.85;;;;;;;;;;5076613;28;20458;-74
2021/07/26 08:23:09;;;;;;;4.57;3.40;;;;;;;;;;5076583;28;20040;-77
2021/07/26 08:25:35;;;;;;;4.00;3.70;;;;;;;;;;5077554;28;20097;-77
2021/07/26 08:28:01;;;;;;;3.65;2.90;;;;;;;;;;5077063;28;20033;-77
2021/07/26 08:30:28;;;;;;;4.43;4.00;;;;;;;;;;5076923;28;20024;-77
2021/07/26 08:32:54;;;;;;;4.00;3.55;;;;;;;;;;5077087;28;20025;-77
2021/07/26 08:35:20;;;;;;;4.47;4.07;;;;;;;;;;5076593;28;20028;-77
2021/07/26 08:37:46;;;;;;;3.90;3.50;;;;;;;;;;5076069;28;20118;-76
2021/07/26 08:40:13;;;;;;;4.47;3.78;;;;;;;;;;5077623;28;20025;-76
2021/07/26 08:42:39;;;;;;;3.65;3.33;;;;;;;;;;5076946;28;20020;-77
2021/07/26 08:45:05;;;;;;;4.03;3.72;;;;;;;;;;5076630;28;20033;-76
2021/07/26 08:47:32;;;;;;;3.67;3.38;;;;;;;;;;5077096;28;20474;-76
2021/07/26 08:49:59;;;;;;;5.47;3.47;;;;;;;;;;5076434;28;20027;-77
2021/07/26 08:52:25;;;;;;;3.80;3.50;;;;;;;;;;5076591;28;20064;-77
2021/07/26 08:54:52;;;;;;;3.50;3.20;;;;;;;;;;5076016;28;20493;-76
2021/07/26 08:57:18;;;;;;;4.57;3.45;;;;;;;;;;5076091;28;20424;-71
2021/07/26 08:59:45;;;;;;;5.70;4.18;;;;;;;;;;5076182;28;20416;-75
2021/07/26 09:02:11;;;;;;;4.05;3.30;;;;;;;;;;5076972;28;20055;-79
2021/07/26 09:04:37;;;;;;;6.43;3.83;;;;;;;;;;5077612;28;20028;-78
2021/07/26 09:07:06;;;;;;;5.53;3.13;;;;;;;;;;5076815;28;20024;-73
2021/07/26 09:09:48;;;;;;;26.08;4.43;;;;;;;;;;5075502;28;20060;-72
2021/07/26 09:12:31;;;;;;;5.85;3.30;;;;;;;;;;5076994;28;20499;-75
2021/07/26 09:14:57;;;;;;;8.93;3.88;;;;;;;;;;5076808;28;20119;-73
2021/07/26 09:17:23;;;;;;;6.13;3.88;;;;;;;;;;5075553;28;20025;-74
2021/07/26 09:19:57;;;;;;;49.22;26.00;;;;;;;;;;5076171;28;20356;-78
2021/07/26 09:22:27;;;;;;;36.53;22.55;;;;;;;;;;5075411;28;20028;-72
2021/07/26 09:25:07;;;;;;;50.45;36.53;;;;;;;;;;5075760;28;20124;-71
2021/07/26 09:27:33;;;;;;;52.85;41.72;;;;;;;;;;5075804;28;20028;-74
2021/07/26 09:30:10;;;;;;;45.92;32.13;;;;;;;;;;5075233;28;20485;-72
2021/07/26 09:32:38;;;;;;;44.60;35.92;;;;;;;;;;5080783;28;20028;-74
2021/07/26 09:35:06;;;;;;;50.20;39.30;;;;;;;;;;5077294;28;20078;-73
2021/07/26 09:37:33;;;;;;;61.88;37.10;;;;;;;;;;5076845;28;20316;-75
2021/07/26 09:40:11;;;;;;;44.72;34.05;;;;;;;;;;5086549;28;20499;-76
2021/07/26 09:42:38;;;;;;;43.53;32.55;;;;;;;;;;5098162;28;20023;-77
2021/07/26 09:45:20;;;;;;;45.80;32.97;;;;;;;;;;5098704;28;20024;-76
2021/07/26 09:48:06;;;;;;;40.58;31.75;;;;;;;;;;5095993;28;20028;-73
2021/07/26 09:50:33;;;;;;;46.10;29.95;;;;;;;;;;5094328;28;20020;-77
2021/07/26 09:53:06;;;;;;;49.35;29.90;;;;;;;;;;5098100;28;20051;-78
2021/07/26 09:55:32;;;;;;;38.00;25.17;;;;;;;;;;5099187;28;20056;-77
2021/07/26 09:58:01;;;;;;;34.95;24.13;;;;;;;;;;5098106;28;20401;-80
2021/07/26 10:00:31;;;;;;;28.90;24.55;;;;;;;;;;5097150;28;20129;-75
2021/07/26 10:02:58;;;;;;;34.63;21.67;;;;;;;;;;5096856;28;20031;-74
2021/07/26 10:05:27;;;;;;;27.83;20.73;;;;;;;;;;5097514;28;20445;-77
2021/07/26 10:07:53;;;;;;;27.00;21.92;;;;;;;;;;5096459;28;20028;-73
2021/07/26 10:10:20;;;;;;;31.50;19.77;;;;;;;;;;5084016;28;20056;-77
2021/07/26 10:12:48;;;;;;;26.08;20.83;;;;;;;;;;5078771;28;20056;-81
2021/07/26 10:15:14;;;;;;;33.05;21.13;;;;;;;;;;5077482;28;20037;-75
2021/07/26 10:17:40;;;;;;;58.50;19.63;;;;;;;;;;5075076;28;20517;-75
2021/07/26 10:20:07;;;;;;;25.08;19.67;;;;;;;;;;5075242;28;20021;-72
2021/07/26 10:22:33;;;;;;;35.70;20.08;;;;;;;;;;5075387;28;20032;-76
2021/07/26 10:25:01;;;;;;;38.45;17.70;;;;;;;;;;5075898;28;20031;-75
2021/07/26 10:27:28;;;;;;;20.15;16.48;;;;;;;;;;5076178;28;20025;-74
2021/07/26 10:29:56;;;;;;;20.63;13.85;;;;;;;;;;5075836;28;20351;-77
2021/07/26 10:32:34;;;;;;;16.08;12.40;;;;;;;;;;5076579;28;20035;-78
2021/07/26 10:35:01;;;;;;;16.05;12.65;;;;;;;;;;5075596;28;20086;-74
2021/07/26 10:37:47;;;;;;;17.10;10.65;;;;;;;;;;5075073;28;20037;-72
2021/07/26 10:40:29;;;;;;;10.57;7.85;;;;;;;;;;5073857;28;20477;-73
2021/07/26 10:43:00;;;;;;;10.63;7.78;;;;;;;;;;5075189;28;20031;-78
2021/07/26 10:45:46;;;;;;;9.50;7.32;;;;;;;;;;5075755;28;20103;-75
2021/07/26 10:48:32;;;;;;;8.80;7.10;;;;;;;;;;5074395;28;20016;-74
2021/07/26 10:51:00;;;;;;;7.93;6.43;;;;;;;;;;5073727;28;20025;-75
2021/07/26 10:53:46;;;;;;;7.30;5.75;;;;;;;;;;5074694;28;20102;-72
2021/07/26 10:56:13;;;;;;;11.95;6.18;;;;;;;;;;5074681;28;20029;-74
2021/07/26 10:58:59;;;;;;;5.97;5.32;;;;;;;;;;5075411;28;20067;-74
2021/07/26 11:01:38;;;;;;;14.10;6.63;;;;;;;;;;5074322;28;20102;-76
2021/07/26 11:04:04;;;;;;;8.93;6.78;;;;;;;;;;5073567;28;20028;-74
2021/07/26 11:06:50;;;;;;;11.93;7.20;;;;;;;;;;5074116;28;20074;-74
2021/07/26 11:09:36;;;;;;;11.55;7.57;;;;;;;;;;5072944;28;20048;-72
2021/07/26 11:12:02;;;;;;;7.47;6.78;;;;;;;;;;5072628;28;20467;-72
2021/07/26 11:14:28;;;;;;;10.10;6.80;;;;;;;;;;5073617;28;20024;-73
2021/07/26 11:17:04;;;;;;;14.20;7.25;;;;;;;;;;5073664;28;20040;-72
2021/07/26 11:19:34;;;;;;;16.40;6.40;;;;;;;;;;5073555;28;20028;-74
2021/07/26 11:22:00;;;;;;;8.63;6.78;;;;;;;;;;5074587;28;20060;-75
2021/07/26 11:24:46;;;;;;;9.60;6.18;;;;;;;;;;5073730;28;20025;-73
2021/07/26 11:27:13;;;;;;;9.07;6.53;;;;;;;;;;5072843;28;20089;-74
2021/07/26 11:29:39;;;;;;;12.60;6.15;;;;;;;;;;5073045;28;20362;-75
2021/07/26 11:32:06;;;;;;;11.20;6.13;;;;;;;;;;5073609;28;20036;-76
2021/07/26 11:34:33;;;;;;;8.65;5.88;;;;;;;;;;5073622;28;20031;-75
2021/07/26 11:37:04;;;;;;;7.07;6.40;;;;;;;;;;5073624;28;20119;-74
2021/07/26 11:39:48;;;;;;;9.25;6.20;;;;;;;;;;5073096;28;20029;-74
2021/07/26 11:42:16;;;;;;;9.27;6.60;;;;;;;;;;5073918;28;20028;-76
2021/07/26 11:44:43;;;;;;;9.43;6.38;;;;;;;;;;5073788;28;20032;-74
2021/07/26 11:47:09;;;;;;;18.83;5.82;;;;;;;;;;5073490;28;20035;-74
2021/07/26 11:49:35;;;;;;;7.70;6.22;;;;;;;;;;5077942;28;20029;-74
2021/07/26 11:52:05;;;;;;;8.25;6.20;;;;;;;;;;5077074;28;20024;-74
2021/07/26 11:54:31;;;;;;;7.38;6.30;;;;;;;;;;5078231;28;20048;-74
2021/07/26 11:57:04;;;;;;;8.90;5.95;;;;;;;;;;5077538;28;20040;-72
2021/07/26 11:59:31;;;;;;;5.95;5.40;;;;;;;;;;5078139;28;20028;-74
2021/07/26 12:01:58;;;;;;;9.02;5.47;;;;;;;;;;5076780;28;20060;-75
2021/07/26 12:04:25;;;;;;;7.03;6.15;;;;;;;;;;5077230;28;20020;-74
2021/07/26 12:06:53;;;;;;;6.75;6.03;;;;;;;;;;5077355;28;20028;-75
2021/07/26 12:09:19;;;;;;;8.85;6.22;;;;;;;;;;5077373;28;20025;-73
2021/07/26 12:11:45;;;;;;;7.30;5.63;;;;;;;;;;5077368;28;20074;-74
2021/07/26 12:14:31;;;;;;;8.90;5.88;;;;;;;;;;5077462;28;20024;-74
2021/07/26 12:17:06;;;;;;;6.82;5.55;;;;;;;;;;5075538;28;20416;-75
2021/07/26 12:19:33;;;;;;;6.97;6.13;;;;;;;;;;5077776;28;20119;-73
2021/07/26 12:22:14;;;;;;;7.82;6.22;;;;;;;;;;5076727;28;20021;-73
2021/07/26 12:24:58;;;;;;;7.97;6.20;;;;;;;;;;5077391;28;20345;-70
2021/07/26 12:27:27;;;;;;;6.82;6.13;;;;;;;;;;5076812;28;20056;-71
2021/07/26 12:29:54;;;;;;;6.60;5.93;;;;;;;;;;5075991;28;20029;-71
2021/07/26 12:32:20;;;;;;;7.55;6.68;;;;;;;;;;5077315;28;20101;-70
2021/07/26 12:35:05;;;;;;;10.35;5.57;;;;;;;;;;5076206;28;20020;-70
2021/07/26 12:37:32;;;;;;;9.23;6.30;;;;;;;;;;5075348;28;20039;-71
2021/07/26 12:40:11;;;;;;;6.72;6.00;;;;;;;;;;5076587;28;20107;-73
2021/07/26 12:42:37;;;;;;;7.53;5.65;;;;;;;;;;5076762;28;20060;-71
2021/07/26 12:45:23;;;;;;;6.25;5.65;;;;;;;;;;5076286;28;20035;-73
2021/07/26 12:47:49;;;;;;;7.47;5.68;;;;;;;;;;5076405;28;20482;-73
2021/07/26 12:50:16;;;;;;;6.85;5.95;;;;;;;;;;5076657;28;20111;-73
2021/07/26 12:52:42;;;;;;;10.57;6.15;;;;;;;;;;5076324;28;20063;-72
2021/07/26 12:55:08;;;;;;;5.95;5.40;;;;;;;;;;5076181;28;20020;-73
2021/07/26 12:57:34;;;;;;;6.68;5.40;;;;;;;;;;5076154;28;20040;-73
2021/07/26 13:00:00;;;;;;;6.68;5.95;;;;;;;;;;5076110;28;20020;-74
2021/07/26 13:02:26;;;;;;;8.10;5.85;;;;;;;;;;5076336;28;20032;-73
2021/07/26 13:04:52;;;;;;;9.88;5.70;;;;;;;;;;5076263;28;20086;-73
2021/07/26 13:07:19;;;;;;;8.93;6.00;;;;;;;;;;5076083;28;20036;-73
2021/07/26 13:09:45;;;;;;;11.55;5.55;;;;;;;;;;5076406;28;20039;-73
2021/07/26 13:12:11;;;;;;;10.52;5.70;;;;;;;;;;5076416;28;20048;-73
2021/07/26 13:14:37;;;;;;;8.00;5.70;;;;;;;;;;5076056;28;20043;-72
2021/07/26 13:17:03;;;;;;;5.95;5.45;;;;;;;;;;5075793;28;20484;-73
2021/07/26 13:19:29;;;;;;;7.35;6.40;;;;;;;;;;5076372;28;20470;-73
2021/07/26 13:21:55;;;;;;;7.03;6.43;;;;;;;;;;5075883;28;20032;-72
2021/07/26 13:24:21;;;;;;;9.90;5.72;;;;;;;;;;5075905;28;20020;-73
2021/07/26 13:26:47;;;;;;;6.05;5.45;;;;;;;;;;5075768;28;20028;-72
2021/07/26 13:29:13;;;;;;;5.70;5.10;;;;;;;;;;5075830;28;20489;-72
2021/07/26 13:31:40;;;;;;;6.72;6.00;;;;;;;;;;5075616;28;20443;-73
2021/07/26 13:34:06;;;;;;;7.13;5.65;;;;;;;;;;5075075;28;20434;-72
2021/07/26 13:36:32;;;;;;;5.25;4.82;;;;;;;;;;5075303;28;20060;-72
2021/07/26 13:38:58;;;;;;;6.57;5.68;;;;;;;;;;5075494;28;20036;-73
2021/07/26 13:41:24;;;;;;;5.93;4.88;;;;;;;;;;5075605;28;20475;-74
2021/07/26 13:43:50;;;;;;;10.48;6.00;;;;;;;;;;5075230;28;20374;-73
2021/07/26 13:46:16;;;;;;;10.32;5.32;;;;;;;;;;5075589;28;20119;-73
2021/07/26 13:48:42;;;;;;;7.78;6.35;;;;;;;;;;5075691;28;20031;-73
2021/07/26 13:51:08;;;;;;;8.35;7.20;;;;;;;;;;5075756;28;20099;-73
2021/07/26 13:53:34;;;;;;;8.23;6.55;;;;;;;;;;5075478;28;20059;-71
2021/07/26 13:56:00;;;;;;;7.68;6.35;;;;;;;;;;5074872;28;20446;-72
2021/07/26 13:58:26;;;;;;;8.15;6.82;;;;;;;;;;5075170;28;20355;-72
2021/07/26 14:00:54;;;;;;;6.93;6.22;;;;;;;;;;5075639;28;20025;-73
2021/07/26 14:03:20;;;;;;;9.23;6.90;;;;;;;;;;5075634;28;20024;-72
2021/07/26 14:05:46;;;;;;;8.30;7.47;;;;;;;;;;5075037;28;20024;-73
2021/07/26 14:08:14;;;;;;;9.32;8.02;;;;;;;;;;5075290;28;20032;-72
2021/07/26 14:10:40;;;;;;;9.65;7.03;;;;;;;;;;5074495;28;20047;-72
2021/07/26 14:13:06;;;;;;;9.77;7.55;;;;;;;;;;5075227;28;20024;-73
2021/07/26 14:15:33;;;;;;;11.43;7.32;;;;;;;;;;5075116;28;20028;-72
2021/07/26 14:18:00;;;;;;;9.88;7.72;;;;;;;;;;5074440;28;20040;-72
2021/07/26 14:20:26;;;;;;;10.23;8.30;;;;;;;;;;5075419;28;20097;-72
2021/07/26 14:22:52;;;;;;;9.40;8.50;;;;;;;;;;5075449;28;20059;-73
2021/07/26 14:25:18;;;;;;;13.48;8.88;;;;;;;;;;5074928;28;20051;-72
2021/07/26 14:27:44;;;;;;;10.50;8.95;;;;;;;;;;5075055;28;20064;-71
2021/07/26 14:30:11;;;;;;;12.15;8.50;;;;;;;;;;5074984;28;20062;-72
2021/07/26 14:32:37;;;;;;;10.85;8.57;;;;;;;;;;5074952;28;20032;-71
2021/07/26 14:35:03;;;;;;;12.27;8.95;;;;;;;;;;5074178;28;20078;-72
2021/07/26 14:37:29;;;;;;;11.55;7.80;;;;;;;;;;5074594;28;20076;-72
2021/07/26 14:39:55;;;;;;;9.93;8.93;;;;;;;;;;5074427;28;20115;-72
2021/07/26 14:42:21;;;;;;;10.45;9.43;;;;;;;;;;5074880;28;20033;-71